Hit Tracker is now ESPN Home Run Tracker! Hit Tracker founder Greg Rybarczyk is now collaborating with the ESPN Stats & Information Group to continue tracking all MLB home runs, and helping baseball fans know "How Far It Really Went!™" Please credit any information on this site to ESPN Stats & Information Group. For more information and analysis on home runs, please contact founder Greg Rybarczyk. E-Mail ESPN Home Run Tracker
Main Page | Ballparks | Park Overlays | Glossary | Highlight Homers | Feedback | Bio | 3 Types of HR's | AAA Home Run Derby Last Updated: September 18, 2017, 10:55 pm PST
If you want to know "How Far It Really Went!", then you've come to the right place! Welcome to the ESPN Home Run Tracker, where you can find accurate, transparently verifiable distances for every home run hit in MLB games. Please also check out the ESPN MLB Scoreboard throughout the 2017 season! Contact us at grybar@hittrackeronline.com.
Season:
Ballpark detail for Kauffman Stadium
Ballpark # of Home Runs HR per game Avg.
True
Distance
Avg.
Speed
Off
Bat
Avg.
Std.
Dist.
Kauffman Stadium 165 2.20 409 105.7 406

Scatter Plot of Home Runs Kauffman Stadium
 Overlay Ballpark:
Without range rings   With range rings

2017 Season Home Runs for Kauffman Stadium
Click headers to sort
Date ^ Video Path Hitter Hitter
Team
Pitcher Pitcher
Team
INN Ballpark Type/
Luck
True
Dist.
Speed
Off
Bat
Elev.
Angle
Horiz.
Angle
Apex Impact Due To: Std.
Dist.
#
Parks
Wind Temp. Alt.
04/10/17 Video View Davis, Khris OAK Kennedy, Ian KC 4 Kauffman Sta... PL 413 102.5 30.1 78.5 106 3 0 2 408 29
04/12/17 Video View Mondesi, Raul KC Montas, Frankie OAK 9 Kauffman Sta... PL 436 106.2 25.3 88.6 91 0 0 1 435 30
04/13/17 Video View Davis, Rajai OAK Herrera, Kelvin KC 9 Kauffman Sta... PL 386 105.7 26.9 123.4 72 0 -1 1 385 30
04/14/17 Video View Moustakas, Mike KC Ramirez, J.C. LAA 1 Kauffman Sta... PL 424 103.5 28.9 85.1 107 -2 1 2 422 26
04/14/17 Video View Perez, Salvador KC Guerra, Deolis LAA 6 Kauffman Sta... PL 424 110.1 24.7 108.2 78 -1 0 1 423 30
04/15/17 Video View Moss, Brandon KC Shoemaker, Matt LAA 4 Kauffman Sta... PL 403 105.3 33.9 68.6 126 -3 2 4 400 30
04/15/17 Video View Moustakas, Mike KC Alvarez, Jose LAA 8 Kauffman Sta... PL 417 104.2 27.4 78.6 93 0 1 2 415 29
04/18/17 Video View Merrifield, Whit KC Cain, Matt SF 5 Kauffman Sta... JE 390 102.0 27.3 70.6 79 0 0 1 388 29
04/28/17 Video View Perez, Salvador KC Gibson, Kyle MIN 2 Kauffman Sta... JE 388 106.7 24.3 114.0 67 -2 -1 1 390 30
04/28/17 Video View Sano, Miguel MIN Kennedy, Ian KC 4 Kauffman Sta... PL 381 101.2 32.2 67.4 105 -3 -4 3 385 30
04/28/17 Video View Moss, Brandon KC Boshers, Buddy MIN 7 Kauffman Sta... PL 421 108.8 30.2 78.9 131 -17 -5 3 441 30
04/30/17 Video View Sano, Miguel MIN Hammel, Jason KC 3 Kauffman Sta... PL 406 103.9 33.1 107.1 121 0 -6 -6 406 30
04/30/17 Video View Cain, Lorenzo KC Hughes, Phil MIN 5 Kauffman Sta... JE 394 110.9 21.3 110.1 56 -1 -1 1 394 30
04/30/17 Video View Merrifield, Whit KC Kintzler, Brandon MIN 9 Kauffman Sta... JE/L 367 105.4 24.0 122.3 58 0 -1 1 367 30
05/01/17 Video View Bonifacio, Jorge KC Covey, Dylan CHW 4 Kauffman Sta... ND 433 109.1 28.3 107.5 102 1 -3 2 433 30
05/01/17 Video View Hosmer, Eric KC Covey, Dylan CHW 7 Kauffman Sta... JE 406 103.6 25.4 100.5 81 0 -2 1 407 30
05/03/17 Video View Abreu, Jose CHW Strahm, Matt KC 9 Kauffman Sta... JE 394 107.4 24.0 112.1 66 0 -2 1 395 30
05/04/17 Video View Abreu, Jose CHW Kennedy, Ian KC 1 Kauffman Sta... JE 423 109.6 20.2 92.6 60 -4 0 0 426 25
05/04/17 Video View Davidson, Matt CHW Kennedy, Ian KC 2 Kauffman Sta... PL 430 102.2 32.4 100.1 109 24 -1 3 405 30
05/05/17 Video View Encarnacion, Edwin CLE Hammel, Jason KC 4 Kauffman Sta... JE 391 103.7 25.6 109.3 73 0 0 1 390 30
05/05/17 Video View Hosmer, Eric KC Salazar, Danny CLE 5 Kauffman Sta... ND 469 112.1 27.3 84.3 116 0 -2 3 468 30
05/06/17 Video View Lindor, Francisco CLE Herrera, Kelvin KC 9 Kauffman Sta... PL 399 102.8 30.1 67.9 95 1 1 2 394 30
05/06/17 Video View Santana, Carlos CLE Herrera, Kelvin KC 9 Kauffman Sta... PL 414 103.1 34.0 79.8 131 5 3 4 403 27
05/12/17 Video View Moss, Brandon KC Bundy, Dylan BAL 5 Kauffman Sta... ND 466 113.4 29.3 78.0 127 0 -2 4 463 30
05/13/17 Video View Pena, Francisco BAL Karns, Nathan KC 3 Kauffman Sta... PL 396 100.4 34.3 117.4 102 19 2 3 372 30
05/13/17 Video View Pena, Francisco BAL Karns, Nathan KC 5 Kauffman Sta... ND 429 109.7 26.0 111.6 76 7 0 2 420 30
05/13/17 Video View Davis, Chris BAL Maness, Seth KC 6 Kauffman Sta... JE/L 378 97.5 37.1 111.6 118 20 1 4 354 8
05/13/17 Video View Moss, Brandon KC Asher, Alec BAL 6 Kauffman Sta... ND 409 113.8 23.7 55.4 64 2 1 1 406 30
05/14/17 Video View Davis, Chris BAL Young, Chris KC 2 Kauffman Sta... PL 393 111.5 32.9 68.5 147 -51 4 5 430 30
05/14/17 Video View Joseph, Caleb BAL Young, Chris KC 4 Kauffman Sta... PL 414 107.3 28.2 112.4 93 -4 2 2 414 30
05/14/17 Video View Moustakas, Mike KC Gausman, Kevin BAL 4 Kauffman Sta... JE 382 114.2 20.1 60.3 50 -2 1 2 381 29
05/14/17 Video View Soler, Jorge KC Bleier, Richard BAL 6 Kauffman Sta... ND 470 120.4 17.2 91.1 62 3 0 0 466 30
05/14/17 Video View Butera, Drew KC Givens, Mychal BAL 7 Kauffman Sta... JE/L 407 102.7 25.7 97.6 87 -4 1 1 408 30
05/16/17 Video View Sanchez, Gary NYY Hammel, Jason KC 3 Kauffman Sta... JE 425 106.3 21.9 90.1 76 3 0 1 421 22
05/16/17 Video View Carter, Chris NYY Hammel, Jason KC 4 Kauffman Sta... JE 414 103.0 31.2 93.2 124 -9 2 3 418 27
05/17/17 Video View Hicks, Aaron NYY Vargas, Jason KC 4 Kauffman Sta... ND 396 104.8 33.9 120.7 112 0 2 3 391 30
05/17/17 Video View Perez, Salvador KC Pineda, Michael NYY 4 Kauffman Sta... PL 444 106.7 29.8 95.5 117 2 2 3 438 30
05/17/17 Video View Merrifield, Whit KC Pineda, Michael NYY 5 Kauffman Sta... PL 428 104.6 30.3 100.6 109 0 1 3 420 30
05/18/17 Video View Moustakas, Mike KC Montgomery, Jordan NYY 5 Kauffman Sta... JE 377 101.3 36.0 68.5 129 -4 2 4 374 29
05/29/17 Video View Merrifield, Whit KC Norris, Daniel DET 3 Kauffman Sta... ND 401 104.7 31.5 121.8 94 5 2 3 392 30
05/29/17 Video View Martinez, J.D. DET Minor, Mike KC 5 Kauffman Sta... ND 433 114.0 26.7 121.2 83 0 1 2 430 30
05/29/17 Video View Hosmer, Eric KC Rodriguez, Francisco DET 7 Kauffman Sta... PL 382 101.9 30.6 120.3 88 0 0 2 380 30
05/31/17 Video View Martinez, Victor DET Kennedy, Ian KC 2 Kauffman Sta... PL 385 105.4 26.7 58.1 72 -1 1 1 384 30
05/31/17 Video View Avila, Alex DET Maness, Seth KC 4 Kauffman Sta... JE 382 99.8 29.0 109.9 84 1 0 2 380 28
06/02/17 Video View Moustakas, Mike KC Tomlin, Josh CLE 8 Kauffman Sta... PL 401 103.7 35.7 74.7 138 4 2 5 391 30
06/03/17 Video View Santana, Carlos CLE Hammel, Jason KC 2 Kauffman Sta... PL 395 104.3 25.4 71.0 72 0 1 1 393 29
06/03/17 Video View Zimmer, Bradley CLE Hammel, Jason KC 2 Kauffman Sta... JE 416 102.2 31.8 83.2 118 1 3 3 410 27
06/03/17 Video View Cain, Lorenzo KC Goody, Nick CLE 5 Kauffman Sta... PL 424 109.9 24.3 107.4 75 0 1 1 421 30
06/04/17 Video View Kipnis, Jason CLE Young, Chris (P) KC 6 Kauffman Sta... PL 421 104.1 30.7 78.7 113 0 2 3 416 29
06/05/17 Video View McCann, Brian HOU Kennedy, Ian KC 4 Kauffman Sta... PL 420 104.1 29.2 77.2 101 1 3 2 414 29
06/05/17 Video View Bonifacio, Jorge KC Hoyt, James HOU 7 Kauffman Sta... PL 413 107.0 34.8 111.2 134 2 5 5 402 30
06/05/17 Video View Gurriel, Yulieski HOU Herrera, Kelvin KC 9 Kauffman Sta... PL 413 107.8 25.6 110.7 76 1 1 1 410 30
06/06/17 Video View Gordon, Alex KC Paulino, David HOU 3 Kauffman Sta... PL 435 109.4 21.0 88.0 72 1 0 0 433 28
06/06/17 Video View Beltran, Carlos HOU Junis, Jake KC 4 Kauffman Sta... PL 375 100.8 32.6 62.2 101 -6 1 3 377 30
06/06/17 Video View Moustakas, Mike KC Giles, Ken HOU 9 Kauffman Sta... ND 418 110.1 34.1 69.2 142 -7 2 5 418 30
06/07/17 Video View McCann, Brian HOU Vargas, Jason KC 2 Kauffman Sta... JE 421 102.5 27.3 89.9 95 0 2 2 418 26
06/07/17 Video View Cain, Lorenzo KC Diaz, Dayan HOU 3 Kauffman Sta... JE 423 107.0 21.6 90.2 69 0 0 0 423 26
06/08/17 Video View Altuve, Jose HOU Herrera, Kelvin KC 9 Kauffman Sta... JE 425 107.8 22.0 94.9 71 0 0 1 425 26
06/19/17 Video View Hosmer, Eric KC Velazquez, Hector BOS 3 Kauffman Sta... PL 446 106.6 26.1 93.2 91 4 2 2 438 30
06/19/17 Video View Bradley Jr., Jackie BOS Hammel, Jason KC 4 Kauffman Sta... ND 424 108.8 27.5 67.2 87 2 2 2 420 30
06/20/17 Video View Moustakas, Mike KC Sale, Chris BOS 2 Kauffman Sta... PL 427 107.5 27.8 72.1 93 0 3 2 422 30
06/20/17 Video View Bonifacio, Jorge KC Sale, Chris BOS 9 Kauffman Sta... PL 439 106.5 26.0 94.7 94 0 1 2 436 30
06/21/17 Video View Benintendi, Andrew BOS Kennedy, Ian KC 4 Kauffman Sta... ND 458 110.9 25.0 83.1 97 -3 2 2 456 30
06/21/17 Video View Bogaerts, Xander BOS Kennedy, Ian KC 4 Kauffman Sta... JE 401 103.9 24.8 103.0 75 -2 1 1 401 30
06/21/17 Video View Perez, Salvador KC Scott, Robby BOS 8 Kauffman Sta... PL 396 105.1 34.3 110.8 130 -16 8 4 398 30
06/24/17 Video View Tulowitzki, Troy TOR Vargas, Jason KC 2 Kauffman Sta... PL 414 106.7 27.6 111.6 86 1 0 2 411 30
06/24/17 Video View Hosmer, Eric KC Estrada, Marco TOR 4 Kauffman Sta... JE/L 390 101.0 36.9 74.2 134 12 2 4 373 25
06/24/17 Video View Pillar, Kevin TOR Vargas, Jason KC 7 Kauffman Sta... PL 407 105.1 26.2 108.8 78 3 1 1 402 30
06/25/17 Video View Bonifacio, Jorge KC Liriano, Francisco TOR 1 Kauffman Sta... PL 399 103.2 27.4 109.4 80 2 0 1 395 30
06/25/17 Video View Bautista, Jose TOR Hammel, Jason KC 5 Kauffman Sta... ND 438 108.0 31.3 105.7 119 5 2 4 428 30
06/30/17 Video View Hosmer, Eric KC Santana, Ervin MIN 4 Kauffman Sta... PL 367 100.7 34.3 119.0 111 -11 2 3 373 30
06/30/17 Video View Moustakas, Mike KC Santana, Ervin MIN 6 Kauffman Sta... JE 416 113.0 20.8 75.8 60 0 1 1 415 29
07/01/17 Video View Sano, Miguel MIN Farrell, Luke KC 3 Kauffman Sta... ND 465 111.5 25.3 94.8 102 -2 2 1 464 30
07/01/17 Video View Moustakas, Mike KC Berrios, Jose MIN 4 Kauffman Sta... ND 433 110.5 26.5 68.8 85 1 2 2 428 30
07/01/17 Video View Escobar, Alcides KC Berrios, Jose MIN 4 Kauffman Sta... JE 400 103.3 26.5 106.3 81 -1 1 2 398 30
07/01/17 Video View Moss, Brandon KC Berrios, Jose MIN 5 Kauffman Sta... ND 467 110.7 25.3 90.2 99 1 2 2 462 30
07/01/17 Video View Gordon, Alex KC Pressly, Ryan MIN 7 Kauffman Sta... PL 413 110.0 23.1 71.7 66 0 1 1 411 30
07/01/17 Video View Hosmer, Eric KC Jorge, Felix MIN 1 Kauffman Sta... PL 389 108.5 24.9 123.9 65 -1 1 1 387 30
07/01/17 Video View Sano, Miguel MIN Hammel, Jason KC 5 Kauffman Sta... ND 453 109.3 29.3 99.0 118 0 2 3 447 30
07/01/17 Video View Soler, Jorge KC Boshers, Buddy MIN 6 Kauffman Sta... ND 418 108.0 29.0 114.5 95 -2 2 2 416 30
07/14/17 Video View Escobar, Alcides KC Perez, Martin TEX 2 Kauffman Sta... PL 364 101.3 27.5 125.6 68 0 1 1 362 29
07/14/17 Video View Beltre, Adrian TEX Hammel, Jason KC 6 Kauffman Sta... PL 424 104.6 27.3 99.3 94 0 1 2 421 30
07/14/17 Video View Napoli, Mike TEX Minor, Mike KC 7 Kauffman Sta... ND 451 115.6 31.3 120.7 118 0 2 4 444 30
07/16/17 Video View Robinson, Drew TEX Kennedy, Ian KC 3 Kauffman Sta... PL 426 109.0 25.8 71.6 82 0 3 2 423 30
07/16/17 Video View Napoli, Mike TEX Kennedy, Ian KC 7 Kauffman Sta... JE/L 413 102.9 34.8 95.1 138 0 7 4 403 18
07/17/17 Video View Castellanos, Nick DET Vargas, Jason KC 2 Kauffman Sta... PL 432 104.3 31.8 88.5 126 1 5 3 424 28
07/17/17 Video View Mahtook, Mikie DET Vargas, Jason KC 3 Kauffman Sta... ND 443 108.0 29.8 102.0 114 0 4 3 436 30
07/17/17 Video View Hosmer, Eric KC Saupold, Warwick DET 8 Kauffman Sta... ND 417 113.0 23.9 63.0 68 0 0 1 415 30
07/18/17 Video View Castellanos, Nick DET Wood, Travis KC 5 Kauffman Sta... ND 412 106.9 30.2 119.1 95 2 3 2 405 30
07/18/17 Video View Castellanos, Nick DET Minor, Mike KC 7 Kauffman Sta... JE/L 414 101.7 28.2 95.2 96 0 1 2 411 22
07/19/17 Video View Moss, Brandon KC Verlander, Justin DET 3 Kauffman Sta... PL 356 97.6 30.4 55.4 77 -1 2 2 353 28
07/19/17 Video View Mahtook, Mikie DET Herrera, Kelvin KC 9 Kauffman Sta... JE 421 102.8 26.7 87.6 92 1 1 1 418 26
07/20/17 Video View Hosmer, Eric KC Fulmer, Michael DET 3 Kauffman Sta... PL 444 110.2 23.4 81.5 79 2 2 1 440 30
07/20/17 Video View Merrifield, Whit KC Bell, Chad DET 6 Kauffman Sta... PL 386 99.3 31.6 111.9 94 3 3 2 377 30
07/21/17 Video View Moustakas, Mike KC Shields, James CHW 4 Kauffman Sta... PL 389 102.4 34.6 69.5 125 -7 6 4 386 30
07/22/17 Video View Cabrera, Melky CHW Vargas, Jason KC 3 Kauffman Sta... JE 364 97.1 32.4 119.8 89 0 5 2 357 28
07/22/17 Video View Moustakas, Mike KC Holmberg, David CHW 6 Kauffman Sta... PL 378 100.5 36.2 65.6 122 0 6 4 368 29
07/22/17 Video View Perez, Salvador KC Holmberg, David CHW 6 Kauffman Sta... PL 415 104.4 30.1 107.7 102 0 4 2 409 30
07/22/17 Video View Moss, Brandon KC Holmberg, David CHW 6 Kauffman Sta... PL 433 108.3 25.4 77.4 84 0 2 2 429 29
07/22/17 Video View Bonifacio, Jorge KC Minaya, Juan CHW 7 Kauffman Sta... PL 406 101.0 31.7 103.4 107 3 3 2 396 30
07/22/17 Video View Moustakas, Mike KC Goldberg, Brad CHW 8 Kauffman Sta... PL 397 102.3 28.2 70.5 84 1 2 2 392 30
07/23/17 Video View Merrifield, Whit KC Holland, Derek CHW 4 Kauffman Sta... JE 404 102.6 26.1 102.2 79 0 2 1 401 30
07/23/17 Video View Bonifacio, Jorge KC Holland, Derek CHW 4 Kauffman Sta... PL 415 104.0 29.7 107.7 97 2 3 2 407 30
07/23/17 Video View Hosmer, Eric KC Holland, Derek CHW 4 Kauffman Sta... PL 389 100.5 34.3 70.9 117 0 5 3 381 29
07/23/17 Video View Merrifield, Whit KC Jennings, Dan CHW 8 Kauffman Sta... PL 385 100.9 31.8 118.6 93 2 4 3 377 30
08/03/17 Video View Seager, Kyle SEA Cahill, Trevor KC 2 Kauffman Sta... PL 383 103.7 28.6 59.7 82 -5 1 2 385 30
08/03/17 Video View Valencia, Danny SEA Cahill, Trevor KC 4 Kauffman Sta... JE/L 338 94.2 32.7 59.3 87 -6 1 2 342 25
08/03/17 Video View Moss, Brandon KC Gallardo, Yovani SEA 5 Kauffman Sta... ND 429 112.6 27.6 65.3 98 -11 1 2 437 30
08/03/17 Video View Moss, Brandon KC Pagan, Emilio SEA 8 Kauffman Sta... PL 381 107.5 24.2 58.2 62 -2 0 1 381 30
08/06/17 Video View Valencia, Danny SEA Duffy, Danny KC 1 Kauffman Sta... PL 436 106.9 26.2 82.0 94 0 1 2 434 30
08/06/17 Video View Seager, Kyle SEA Duffy, Danny KC 1 Kauffman Sta... JE 367 99.9 29.5 58.3 79 -1 1 2 366 30
08/06/17 Video View Cruz, Nelson SEA Duffy, Danny KC 2 Kauffman Sta... JE 409 101.8 32.5 98.9 120 0 1 3 405 28
08/06/17 Video View Merrifield, Whit KC Gonzales, Marco SEA 3 Kauffman Sta... ND 419 109.4 28.4 119.0 89 0 1 2 416 30
08/06/17 Video View Cruz, Nelson SEA Alexander, Scott KC 7 Kauffman Sta... ND 462 111.5 23.7 86.8 90 1 1 1 460 30
08/06/17 Video View Moustakas, Mike KC Vincent, Nick SEA 8 Kauffman Sta... PL 430 105.2 28.3 80.9 103 1 1 2 426 30
08/06/17 Video View Merrifield, Whit KC Ramirez, Erasmo SEA 3 Kauffman Sta... JE/L 376 98.3 31.1 111.5 92 1 1 2 372 25
08/06/17 Video View Cabrera, Melky KC Ramirez, Erasmo SEA 3 Kauffman Sta... PL 417 107.2 24.9 74.8 78 -1 0 1 415 30
08/06/17 Video View Hosmer, Eric KC Ramirez, Erasmo SEA 6 Kauffman Sta... PL 435 107.5 23.5 93.9 81 0 0 1 434 29
08/07/17 Video View Moustakas, Mike KC Martinez, Carlos STL 2 Kauffman Sta... JE 359 103.5 24.9 52.9 58 0 0 1 358 28
08/07/17 Video View Hosmer, Eric KC Martinez, Carlos STL 4 Kauffman Sta... PL 365 98.3 34.7 118.7 105 0 0 3 361 30
08/07/17 Video View Carpenter, Matt STL Kennedy, Ian KC 4 Kauffman Sta... PL 380 103.5 27.8 58.1 74 0 1 1 379 30
08/07/17 Video View Wong, Kolten STL Buchter, Ryan KC 8 Kauffman Sta... JE 426 113.3 20.3 79.8 61 0 0 0 426 29
08/07/17 Video View DeJong, Paul STL Buchter, Ryan KC 9 Kauffman Sta... JE 381 99.3 30.8 110.1 94 0 0 2 379 28
08/07/17 Video View Moss, Brandon KC Tuivailala, Sam STL 9 Kauffman Sta... PL 432 104.7 27.7 88.4 103 0 0 2 431 29
08/08/17 Video View Molina, Yadier STL Vargas, Jason KC 4 Kauffman Sta... PL 417 102.9 30.4 99.2 110 0 1 2 413 30
08/08/17 Video View Grichuk, Randal STL Vargas, Jason KC 5 Kauffman Sta... PL 396 105.2 25.3 110.5 71 0 0 1 394 30
08/08/17 Video View Gyorko, Jedd STL Minor, Mike KC 5 Kauffman Sta... ND 418 107.3 30.2 114.6 101 2 0 3 413 30
08/18/17 Video View Bruce, Jay CLE Kennedy, Ian KC 1 Kauffman Sta... PL 420 105.1 28.7 74.7 97 0 3 2 416 30
08/18/17 Video View Bruce, Jay CLE Junis, Jake KC 7 Kauffman Sta... JE 413 102.0 29.7 81.4 105 0 1 2 410 28
08/18/17 Video View Kipnis, Jason CLE Kennedy, Ian KC 1 Kauffman Sta... PL 407 109.6 23.9 67.1 67 0 1 1 405 30
08/18/17 Video View Moss, Brandon KC Kluber, Corey CLE 2 Kauffman Sta... PL 441 107.4 24.4 91.4 86 0 1 1 439 30
08/18/17 Video View Encarnacion, Edwin CLE Buchter, Ryan KC 9 Kauffman Sta... PL 379 104.0 37.2 118.1 134 0 2 5 372 30
08/20/17 Video View Lindor, Francisco CLE Hammel, Jason KC 3 Kauffman Sta... PL 346 99.2 40.4 62.0 138 0 6 5 335 20
08/20/17 Video View Cuthbert, Cheslor KC Salazar, Danny CLE 4 Kauffman Sta... PL 419 106.1 29.3 109.4 99 -1 3 2 415 30
08/22/17 Video View Arenado, Nolan COL Duffy, Danny KC 6 Kauffman Sta... JE 419 102.3 29.6 90.4 109 0 -1 2 418 26
08/23/17 Video View Arenado, Nolan COL Kennedy, Ian KC 1 Kauffman Sta... PL 387 101.6 35.0 109.9 124 0 1 4 382 30
08/23/17 Video View Blackmon, Charlie COL Kennedy, Ian KC 3 Kauffman Sta... JE 369 100.9 37.3 66.9 132 0 0 5 364 27
08/23/17 Video View Hosmer, Eric KC Holland, Greg COL 9 Kauffman Sta... ND 403 110.7 25.3 56.7 70 0 -1 2 402 30
08/24/17 Video View Merrifield, Whit KC Marquez, German COL 1 Kauffman Sta... PL 406 102.7 31.1 104.0 110 -3 2 3 405 30
08/24/17 Video View Moss, Brandon KC Marquez, German COL 2 Kauffman Sta... ND 423 110.6 30.0 60.3 102 -5 2 3 423 30
08/24/17 Video View Valaika, Pat COL Minor, Mike KC 8 Kauffman Sta... PL 371 99.4 35.8 114.6 117 0 3 4 365 30
08/28/17 Video View Duda, Lucas TB Kennedy, Ian KC 3 Kauffman Sta... PL 401 105.1 29.9 61.9 92 0 1 2 398 30
08/28/17 Video View Ramos, Wilson TB Kennedy, Ian KC 3 Kauffman Sta... PL 433 105.6 25.5 93.2 89 0 0 1 431 29
08/28/17 Video View Morrison, Logan TB Mccarthy, Kevin KC 9 Kauffman Sta... PL 400 105.2 28.4 64.1 86 0 0 2 399 30
08/29/17 Video View Merrifield, Whit KC Cobb, Alex TB 3 Kauffman Sta... PL 373 99.8 32.0 119.6 93 0 0 2 371 30
08/29/17 Video View Bonifacio, Jorge KC Cobb, Alex TB 6 Kauffman Sta... ND 415 109.4 26.6 116.2 81 0 -1 1 414 30
08/29/17 Video View Miller, Brad TB Maurer, Brandon KC 7 Kauffman Sta... PL 407 110.2 24.7 63.3 70 0 0 1 406 30
08/29/17 Video View Hosmer, Eric KC Jennings, Dan TB 7 Kauffman Sta... JE 411 108.9 21.2 99.9 62 0 0 1 411 29
08/30/17 Video View Hechavarria, Adeiny TB Vargas, Jason KC 3 Kauffman Sta... JE/L 413 101.3 30.1 95.4 106 1 1 2 409 23
08/30/17 Video View Souza Jr., Steven TB Vargas, Jason KC 5 Kauffman Sta... ND 431 112.3 29.6 124.0 96 2 0 3 426 30
08/30/17 Video View Merrifield, Whit KC Odorizzi, Jake TB 3 Kauffman Sta... PL 389 102.4 28.6 114.4 82 1 0 2 386 30
08/30/17 Video View Morrison, Logan TB Vargas, Jason KC 5 Kauffman Sta... ND 425 111.7 34.0 62.7 134 0 0 5 420 30
09/07/17 Video View Grossman, Robbie MIN Gaviglio, Sam KC 5 Kauffman Sta... PL 408 105.7 27.2 69.8 85 0 -1 1 407 30
09/08/17 Video View Rosario, Eddie MIN Kennedy, Ian KC 3 Kauffman Sta... ND 435 111.2 32.3 67.2 127 0 2 4 429 30
09/08/17 Video View Hosmer, Eric KC Santana, Ervin MIN 4 Kauffman Sta... JE 380 99.7 31.3 66.4 94 0 0 2 377 29
09/08/17 Video View Escobar, Eduardo MIN Cahill, Trevor KC 5 Kauffman Sta... PL 419 105.3 28.9 74.4 100 0 0 2 417 30
09/09/17 Video View Escobar, Eduardo MIN Junis, Jake KC 3 Kauffman Sta... ND 405 109.2 26.6 57.7 76 -1 1 1 403 30
09/09/17 Video View Buxton, Byron MIN Junis, Jake KC 6 Kauffman Sta... ND 414 107.4 33.4 117.3 118 2 2 4 406 30
09/09/17 Video View Gordon, Alex KC Berrios, Jose MIN 7 Kauffman Sta... JE 374 99.4 30.6 111.6 95 -7 1 2 377 30
09/10/17 Video View Moss, Brandon KC Curtiss, John MIN 7 Kauffman Sta... ND 421 110.3 25.9 65.2 81 -1 1 1 418 30
09/10/17 Video View Vargas, Kennys MIN McCarthy, Kevin KC 9 Kauffman Sta... JE 408 104.4 25.1 77.3 77 1 1 1 405 28
09/11/17 Video View Moss, Brandon KC Lopez, Reynaldo CHW 5 Kauffman Sta... JE 366 108.5 22.2 54.1 51 0 0 1 365 28
09/11/17 Video View Engel, Adam CHW Maurer, Brandon KC 6 Kauffman Sta... PL 419 104.0 28.8 100.1 103 0 -1 2 418 30
09/12/17 Video View Moss, Brandon KC Covey, Dylan CHW 1 Kauffman Sta... PL 436 116.4 20.8 75.5 64 0 0 1 435 29
09/13/17 Video View Perez, Salvador KC Giolito, Lucas CHW 6 Kauffman Sta... JE 392 107.6 23.7 114.1 62 1 1 1 390 30


About HitTracker | Contact Us
© 2006-2017 HitTrackerOnline